Terminal Aerodrome Forecast
Issued by NWS Louisville, KY

Home | Current Version | Previous Version | Graphics & Text | Print | Product List | Glossary On
Versions: 1 2 3 4 5 6 7 8 9 10 11 12 13 14 15 16 17
000
FTUS43 KLMK 011726
TAFSDF
TAF
KSDF 011726Z 0118/0224 24007KT P6SM VCTS BKN035CB
      TEMPO 0119/0123 2SM -TSRA BKN035CB
     FM012300 23007KT P6SM SCT040 BKN200
     FM020600 27005KT P6SM BKN200
     FM021800 27009KT P6SM VCSH BKN040=

USA.gov is the U.S. government's official web portal to all federal, state and local government web resources and services.